sensor_id;sensor_type;location;lat;lon;timestamp;temperature;humidity
18268;DHT22;9260;49.998;19.880;2023-03-02T00:05:01;-6.60;99.90
18268;DHT22;9260;49.998;19.880;2023-03-02T00:15:06;-6.80;99.90
18268;DHT22;9260;49.998;19.880;2023-03-02T00:25:13;-6.90;99.90
18268;DHT22;9260;49.998;19.880;2023-03-02T00:35:17;-6.80;99.90
18268;DHT22;9260;49.998;19.880;2023-03-02T00:45:22;-6.70;99.90
18268;DHT22;9260;49.998;19.880;2023-03-02T00:55:25;-7.00;99.90
18268;DHT22;9260;49.998;19.880;2023-03-02T01:05:30;-7.10;99.90
18268;DHT22;9260;49.998;19.880;2023-03-02T01:15:38;-7.20;99.90
18268;DHT22;9260;49.998;19.880;2023-03-02T01:25:43;-7.20;99.90
18268;DHT22;9260;49.998;19.880;2023-03-02T01:35:47;-7.20;99.90
18268;DHT22;9260;49.998;19.880;2023-03-02T01:45:54;-7.20;99.90
18268;DHT22;9260;49.998;19.880;2023-03-02T01:56:15;-7.30;99.90
18268;DHT22;9260;49.998;19.880;2023-03-02T02:06:23;-7.40;99.90
18268;DHT22;9260;49.998;19.880;2023-03-02T02:16:31;-7.40;99.90
18268;DHT22;9260;49.998;19.880;2023-03-02T02:26:40;-7.50;99.90
18268;DHT22;9260;49.998;19.880;2023-03-02T02:36:47;-7.60;99.90
18268;DHT22;9260;49.998;19.880;2023-03-02T02:46:55;-7.60;99.90
18268;DHT22;9260;49.998;19.880;2023-03-02T02:57:00;-7.60;99.90
18268;DHT22;9260;49.998;19.880;2023-03-02T03:07:09;-7.60;99.90
18268;DHT22;9260;49.998;19.880;2023-03-02T03:17:17;-7.70;99.90
18268;DHT22;9260;49.998;19.880;2023-03-02T03:27:33;-7.80;99.90
18268;DHT22;9260;49.998;19.880;2023-03-02T03:37:39;-7.80;99.90
18268;DHT22;9260;49.998;19.880;2023-03-02T03:47:47;-7.90;99.90
18268;DHT22;9260;49.998;19.880;2023-03-02T03:57:51;-7.90;99.90
18268;DHT22;9260;49.998;19.880;2023-03-02T04:07:56;-8.00;99.90
18268;DHT22;9260;49.998;19.880;2023-03-02T04:18:00;-8.00;99.90
18268;DHT22;9260;49.998;19.880;2023-03-02T04:28:06;-8.10;99.90
18268;DHT22;9260;49.998;19.880;2023-03-02T04:38:13;-8.20;99.90
18268;DHT22;9260;49.998;19.880;2023-03-02T04:48:18;-8.20;99.90
18268;DHT22;9260;49.998;19.880;2023-03-02T04:58:22;-8.20;99.90
18268;DHT22;9260;49.998;19.880;2023-03-02T05:08:27;-8.30;99.90
18268;DHT22;9260;49.998;19.880;2023-03-02T05:18:30;-8.30;99.90
18268;DHT22;9260;49.998;19.880;2023-03-02T05:28:35;-8.30;99.90
18268;DHT22;9260;49.998;19.880;2023-03-02T05:38:39;-8.30;99.90
18268;DHT22;9260;49.998;19.880;2023-03-02T05:48:44;-8.10;99.90
18268;DHT22;9260;49.998;19.880;2023-03-02T05:58:47;-7.70;99.90
18268;DHT22;9260;49.998;19.880;2023-03-02T06:08:52;-7.40;99.90
18268;DHT22;9260;49.998;19.880;2023-03-02T06:18:56;-7.00;99.90
18268;DHT22;9260;49.998;19.880;2023-03-02T06:29:01;-6.50;99.90
18268;DHT22;9260;49.998;19.880;2023-03-02T06:39:04;-5.80;99.90
18268;DHT22;9260;49.998;19.880;2023-03-02T06:49:10;-5.00;99.90
18268;DHT22;9260;49.998;19.880;2023-03-02T06:59:15;-0.90;99.90
18268;DHT22;9260;49.998;19.880;2023-03-02T07:09:20;3.50;99.90
18268;DHT22;9260;49.998;19.880;2023-03-02T07:19:25;6.60;99.90
18268;DHT22;9260;49.998;19.880;2023-03-02T07:29:30;9.30;99.90
18268;DHT22;9260;49.998;19.880;2023-03-02T07:39:33;11.50;99.90
18268;DHT22;9260;49.998;19.880;2023-03-02T07:49:38;13.80;99.90
18268;DHT22;9260;49.998;19.880;2023-03-02T07:59:43;15.70;99.90
18268;DHT22;9260;49.998;19.880;2023-03-02T08:09:48;17.60;99.90
18268;DHT22;9260;49.998;19.880;2023-03-02T08:19:52;19.80;99.90
18268;DHT22;9260;49.998;19.880;2023-03-02T08:29:57;21.20;99.90
18268;DHT22;9260;49.998;19.880;2023-03-02T08:40:01;21.40;99.90
18268;DHT22;9260;49.998;19.880;2023-03-02T08:50:07;23.90;99.90
18268;DHT22;9260;49.998;19.880;2023-03-02T09:00:12;25.60;99.90
18268;DHT22;9260;49.998;19.880;2023-03-02T09:10:18;26.80;99.90
18268;DHT22;9260;49.998;19.880;2023-03-02T09:20:22;27.50;99.90
18268;DHT22;9260;49.998;19.880;2023-03-02T09:30:27;29.60;99.90
18268;DHT22;9260;49.998;19.880;2023-03-02T09:40:31;29.90;99.90
18268;DHT22;9260;49.998;19.880;2023-03-02T09:50:40;31.60;99.90
18268;DHT22;9260;49.998;19.880;2023-03-02T10:00:51;33.00;99.90
18268;DHT22;9260;49.998;19.880;2023-03-02T10:11:03;33.90;99.90
18268;DHT22;9260;49.998;19.880;2023-03-02T10:21:12;34.60;99.90
18268;DHT22;9260;49.998;19.880;2023-03-02T10:31:27;36.30;99.90
18268;DHT22;9260;49.998;19.880;2023-03-02T10:41:35;35.70;99.90
18268;DHT22;9260;49.998;19.880;2023-03-02T10:51:43;38.20;99.90
18268;DHT22;9260;49.998;19.880;2023-03-02T11:01:57;39.10;99.90
18268;DHT22;9260;49.998;19.880;2023-03-02T11:12:04;37.70;99.90
18268;DHT22;9260;49.998;19.880;2023-03-02T11:22:24;39.30;99.90
18268;DHT22;9260;49.998;19.880;2023-03-02T11:32:38;38.70;99.90
18268;DHT22;9260;49.998;19.880;2023-03-02T11:42:45;41.20;99.90
18268;DHT22;9260;49.998;19.880;2023-03-02T11:52:52;41.00;99.90
18268;DHT22;9260;49.998;19.880;2023-03-02T12:03:01;41.00;99.90
18268;DHT22;9260;49.998;19.880;2023-03-02T12:13:14;41.00;99.90
18268;DHT22;9260;49.998;19.880;2023-03-02T12:23:22;40.90;99.90
18268;DHT22;9260;49.998;19.880;2023-03-02T12:33:28;40.70;99.90
18268;DHT22;9260;49.998;19.880;2023-03-02T12:43:32;39.40;99.90
18268;DHT22;9260;49.998;19.880;2023-03-02T12:53:37;40.40;99.90
18268;DHT22;9260;49.998;19.880;2023-03-02T13:03:44;39.80;99.90
18268;DHT22;9260;49.998;19.880;2023-03-02T13:13:51;38.30;99.90
18268;DHT22;9260;49.998;19.880;2023-03-02T13:23:54;39.30;99.90
18268;DHT22;9260;49.998;19.880;2023-03-02T13:34:00;38.00;99.90
18268;DHT22;9260;49.998;19.880;2023-03-02T13:44:17;38.70;99.90
18268;DHT22;9260;49.998;19.880;2023-03-02T13:54:27;37.50;99.90
18268;DHT22;9260;49.998;19.880;2023-03-02T14:04:32;37.00;99.90
18268;DHT22;9260;49.998;19.880;2023-03-02T14:14:38;34.40;99.90
18268;DHT22;9260;49.998;19.880;2023-03-02T14:24:45;32.80;99.90
18268;DHT22;9260;49.998;19.880;2023-03-02T14:34:50;30.90;99.90
18268;DHT22;9260;49.998;19.880;2023-03-02T14:44:53;28.30;99.90
18268;DHT22;9260;49.998;19.880;2023-03-02T14:55:00;24.80;99.90
18268;DHT22;9260;49.998;19.880;2023-03-02T15:05:05;17.30;99.90
18268;DHT22;9260;49.998;19.880;2023-03-02T15:15:11;13.50;99.90
18268;DHT22;9260;49.998;19.880;2023-03-02T15:25:15;11.40;99.90
18268;DHT22;9260;49.998;19.880;2023-03-02T15:35:20;9.70;99.90
18268;DHT22;9260;49.998;19.880;2023-03-02T15:45:23;8.50;99.90
18268;DHT22;9260;49.998;19.880;2023-03-02T15:55:29;7.50;99.90
18268;DHT22;9260;49.998;19.880;2023-03-02T16:05:32;6.70;99.90
18268;DHT22;9260;49.998;19.880;2023-03-02T16:15:37;5.90;99.90
18268;DHT22;9260;49.998;19.880;2023-03-02T16:25:42;5.20;99.90
18268;DHT22;9260;49.998;19.880;2023-03-02T16:35:49;4.50;99.90
18268;DHT22;9260;49.998;19.880;2023-03-02T16:45:53;3.80;99.90
18268;DHT22;9260;49.998;19.880;2023-03-02T16:55:58;3.10;99.90
18268;DHT22;9260;49.998;19.880;2023-03-02T17:06:01;2.60;99.90
18268;DHT22;9260;49.998;19.880;2023-03-02T17:16:08;1.90;99.90
18268;DHT22;9260;49.998;19.880;2023-03-02T17:26:11;1.40;99.90
18268;DHT22;9260;49.998;19.880;2023-03-02T17:36:16;0.90;99.90
18268;DHT22;9260;49.998;19.880;2023-03-02T17:46:24;0.40;99.90
18268;DHT22;9260;49.998;19.880;2023-03-02T17:56:30;0.10;99.90
18268;DHT22;9260;49.998;19.880;2023-03-02T18:06:33;-0.20;99.90
18268;DHT22;9260;49.998;19.880;2023-03-02T18:16:38;-0.40;99.90
18268;DHT22;9260;49.998;19.880;2023-03-02T18:26:42;-0.60;99.90
18268;DHT22;9260;49.998;19.880;2023-03-02T18:36:47;-0.90;99.90
18268;DHT22;9260;49.998;19.880;2023-03-02T18:46:50;-1.00;99.90
18268;DHT22;9260;49.998;19.880;2023-03-02T18:56:55;-1.10;99.90
18268;DHT22;9260;49.998;19.880;2023-03-02T19:06:58;-1.20;99.90
18268;DHT22;9260;49.998;19.880;2023-03-02T19:17:05;-1.50;99.90
18268;DHT22;9260;49.998;19.880;2023-03-02T19:27:08;-1.70;99.90
18268;DHT22;9260;49.998;19.880;2023-03-02T19:37:14;-1.90;99.90
18268;DHT22;9260;49.998;19.880;2023-03-02T19:47:17;-2.20;99.90
18268;DHT22;9260;49.998;19.880;2023-03-02T19:57:22;-2.30;99.90
18268;DHT22;9260;49.998;19.880;2023-03-02T20:07:26;-2.40;99.90
18268;DHT22;9260;49.998;19.880;2023-03-02T20:17:31;-2.60;99.90
18268;DHT22;9260;49.998;19.880;2023-03-02T20:27:35;-2.70;99.90
18268;DHT22;9260;49.998;19.880;2023-03-02T20:37:40;-2.90;99.90
18268;DHT22;9260;49.998;19.880;2023-03-02T20:47:45;-3.10;99.90
18268;DHT22;9260;49.998;19.880;2023-03-02T20:57:50;-3.10;99.90
18268;DHT22;9260;49.998;19.880;2023-03-02T21:07:54;-2.90;99.90
18268;DHT22;9260;49.998;19.880;2023-03-02T21:17:59;-2.60;99.90
18268;DHT22;9260;49.998;19.880;2023-03-02T21:28:03;-2.50;99.90
18268;DHT22;9260;49.998;19.880;2023-03-02T21:38:09;-2.40;99.90
18268;DHT22;9260;49.998;19.880;2023-03-02T21:48:13;-2.40;99.90
18268;DHT22;9260;49.998;19.880;2023-03-02T21:58:18;-2.70;99.90
18268;DHT22;9260;49.998;19.880;2023-03-02T22:08:22;-2.90;99.90
18268;DHT22;9260;49.998;19.880;2023-03-02T22:18:27;-3.00;99.90
18268;DHT22;9260;49.998;19.880;2023-03-02T22:28:32;-3.30;99.90
18268;DHT22;9260;49.998;19.880;2023-03-02T22:38:42;-3.60;99.90
18268;DHT22;9260;49.998;19.880;2023-03-02T22:48:48;-3.80;99.90
18268;DHT22;9260;49.998;19.880;2023-03-02T22:58:54;-4.00;99.90
18268;DHT22;9260;49.998;19.880;2023-03-02T23:09:00;-4.10;99.90
18268;DHT22;9260;49.998;19.880;2023-03-02T23:19:07;-4.30;99.90
18268;DHT22;9260;49.998;19.880;2023-03-02T23:29:11;-4.50;99.90
18268;DHT22;9260;49.998;19.880;2023-03-02T23:39:16;-4.60;99.90
18268;DHT22;9260;49.998;19.880;2023-03-02T23:49:19;-4.60;99.90
18268;DHT22;9260;49.998;19.880;2023-03-02T23:59:24;-4.90;99.90
